createdAt,value
2023-05-13T00:02:14.689Z,101335.00
2023-05-13T00:07:18.602Z,101336.20
2023-05-13T00:31:35.428Z,101338.40
2023-05-13T00:44:08.354Z,101335.20
2023-05-13T00:57:42.536Z,101330.60
2023-05-13T01:03:09.006Z,101332.80
2023-05-13T01:09:16.397Z,101334.60
2023-05-13T01:37:22.873Z,101342.40
2023-05-13T01:42:29.990Z,101344.20
2023-05-13T01:47:33.912Z,101348.20
2023-05-13T02:07:21.651Z,101341.60
2023-05-13T02:12:27.414Z,101348.80
2023-05-13T02:17:35.039Z,101343.60
2023-05-13T02:37:27.627Z,101344.20
2023-05-13T02:49:56.532Z,101350.20
2023-05-13T02:55:00.396Z,101349.60
2023-05-13T03:01:39.379Z,101342.40
2023-05-13T03:06:43.074Z,101348.60
2023-05-13T03:11:47.311Z,101351.60
2023-05-13T03:16:50.995Z,101350.60
2023-05-13T03:21:55.174Z,101353.60
2023-05-13T03:35:36.841Z,101349.00
2023-05-13T03:56:00.734Z,101359.60
2023-05-13T04:24:27.514Z,101367.40
2023-05-13T04:30:47.919Z,101367.60
2023-05-13T04:56:04.686Z,101372.80
2023-05-13T05:01:58.799Z,101377.40
2023-05-13T05:07:22.167Z,101375.40
2023-05-13T05:12:26.451Z,101376.80
2023-05-13T05:17:33.037Z,101380.00
2023-05-13T05:22:38.928Z,101376.60
2023-05-13T05:28:40.459Z,101382.80
2023-05-13T05:33:44.947Z,101381.00
2023-05-13T05:46:46.952Z,101385.80
2023-05-13T05:51:50.783Z,101385.20
2023-05-13T06:11:15.283Z,101390.20
2023-05-13T06:17:09.797Z,101383.60
2023-05-13T06:22:13.840Z,101380.00
2023-05-13T06:28:13.893Z,101378.00
2023-05-13T06:40:26.113Z,101375.40
2023-05-13T06:45:30.276Z,101378.60
2023-05-13T06:51:00.219Z,101376.80
2023-05-13T06:56:04.535Z,101383.80
2023-05-13T07:01:08.198Z,101385.00
2023-05-13T07:06:12.973Z,101382.80
2023-05-13T07:11:16.833Z,101382.00
2023-05-13T07:16:21.288Z,101382.60
2023-05-13T07:21:25.131Z,101385.20
2023-05-13T07:26:28.948Z,101385.20
2023-05-13T07:38:46.565Z,101379.00
2023-05-13T07:43:50.400Z,101370.20
2023-05-13T07:53:18.259Z,101367.40
2023-05-13T07:58:23.377Z,101371.60
2023-05-13T08:10:34.495Z,101369.00
2023-05-13T08:15:38.933Z,101362.60
2023-05-13T08:20:42.979Z,101367.60
2023-05-13T08:50:36.818Z,101357.20
2023-05-13T09:03:52.637Z,101345.40
2023-05-13T09:08:57.306Z,101341.80
2023-05-13T09:14:33.396Z,101339.00
2023-05-13T09:26:57.910Z,101331.80
2023-05-13T09:32:02.349Z,101347.80
2023-05-13T09:37:08.622Z,101341.60
2023-05-13T09:46:39.773Z,101336.00
2023-05-13T09:51:46.377Z,101309.60
2023-05-13T09:56:59.989Z,101319.20
2023-05-13T10:02:09.122Z,101319.00
2023-05-13T10:07:13.581Z,101318.00
2023-05-13T10:12:20.380Z,101313.80
2023-05-13T10:17:26.460Z,101311.80
2023-05-13T10:22:40.896Z,101310.00
2023-05-13T10:27:45.251Z,101312.00
2023-05-13T10:32:50.029Z,101306.80
2023-05-13T10:38:07.486Z,101304.40
2023-05-13T10:43:22.365Z,101305.60
2023-05-13T10:48:26.848Z,101299.00
2023-05-13T10:53:44.764Z,101292.80
2023-05-13T10:59:03.929Z,101302.80
2023-05-13T11:04:07.855Z,101305.80
2023-05-13T11:09:21.087Z,101296.20
2023-05-13T11:14:27.118Z,101276.60
2023-05-13T11:19:52.821Z,101286.60
2023-05-13T11:25:11.185Z,101284.60
2023-05-13T11:30:27.610Z,101285.60
2023-05-13T11:35:33.578Z,101267.20
2023-05-13T11:40:39.271Z,101289.00
2023-05-13T11:45:45.905Z,101286.20
2023-05-13T11:51:41.848Z,101287.80
2023-05-13T11:56:45.603Z,101284.00
2023-05-13T12:02:01.459Z,101269.60
2023-05-13T12:13:59.001Z,101268.00
2023-05-13T12:20:42.471Z,101264.00
2023-05-13T12:25:51.494Z,101266.40
2023-05-13T12:31:06.159Z,101271.60
2023-05-13T12:36:26.002Z,101265.40
2023-05-13T12:41:40.492Z,101258.40
2023-05-13T12:53:56.955Z,101269.80
2023-05-13T12:59:56.225Z,101253.40
2023-05-13T13:04:59.765Z,101254.60
2023-05-13T13:10:04.018Z,101256.80
2023-05-13T13:15:09.755Z,101241.60
2023-05-13T13:20:23.026Z,101230.00
2023-05-13T13:25:27.559Z,101228.20
2023-05-13T13:30:34.247Z,101239.00
2023-05-13T13:35:38.293Z,101236.60
2023-05-13T13:40:48.247Z,101228.40
2023-05-13T13:45:52.012Z,101228.80
2023-05-13T13:51:08.308Z,101215.40
2023-05-13T14:03:34.424Z,101227.60
2023-05-13T14:08:38.632Z,101253.40
2023-05-13T14:28:04.582Z,101224.40
2023-05-13T14:34:01.109Z,101224.40
2023-05-13T14:39:04.915Z,101218.80
2023-05-13T14:45:26.027Z,101212.20
2023-05-13T14:50:29.836Z,101210.40
2023-05-13T14:55:45.527Z,101209.40
2023-05-13T15:00:51.708Z,101223.00
2023-05-13T15:05:57.595Z,101227.60
2023-05-13T15:11:01.399Z,101226.20
2023-05-13T15:30:57.576Z,101250.00
2023-05-13T15:42:52.504Z,101239.80
2023-05-13T15:48:21.389Z,101235.20
2023-05-13T15:53:25.270Z,101242.20
2023-05-13T15:58:58.386Z,101239.20
2023-05-13T16:11:40.290Z,101216.80
2023-05-13T16:16:44.310Z,101214.20
2023-05-13T16:21:48.933Z,101220.20
2023-05-13T16:26:52.980Z,101222.40
2023-05-13T16:31:57.570Z,101220.40
2023-05-13T16:37:01.541Z,101226.20
2023-05-13T16:42:06.495Z,101243.80
2023-05-13T16:47:10.757Z,101242.80
2023-05-13T16:52:14.461Z,101250.80
2023-05-13T16:57:20.547Z,101245.80
2023-05-13T17:02:24.531Z,101231.80
2023-05-13T17:07:28.448Z,101230.00
2023-05-13T17:12:32.724Z,101233.40
2023-05-13T17:17:36.750Z,101228.80
2023-05-13T17:22:45.834Z,101224.60
2023-05-13T17:27:49.548Z,101223.20
2023-05-13T17:32:53.427Z,101222.60
2023-05-13T17:37:57.436Z,101226.60
2023-05-13T17:43:04.062Z,101225.00
2023-05-13T17:55:11.375Z,101225.80
2023-05-13T18:00:16.324Z,101228.40
2023-05-13T18:05:23.375Z,101217.60
2023-05-13T18:10:29.210Z,101219.80
2023-05-13T18:15:59.440Z,101218.80
2023-05-13T18:21:03.393Z,101213.80
2023-05-13T18:26:07.866Z,101217.80
2023-05-13T18:31:22.107Z,101227.20
2023-05-13T18:36:52.428Z,101231.60
2023-05-13T18:42:00.316Z,101241.40
2023-05-13T18:55:14.800Z,101240.60
2023-05-13T19:00:22.918Z,101243.60
2023-05-13T19:11:05.022Z,101267.20
2023-05-13T19:16:10.004Z,101268.00
2023-05-13T19:21:13.718Z,101256.00
2023-05-13T19:26:17.453Z,101254.00
2023-05-13T19:31:37.295Z,101253.80
2023-05-13T19:44:56.186Z,101256.40
2023-05-13T19:50:00.011Z,101258.80
2023-05-13T19:55:56.209Z,101250.20
2023-05-13T20:01:15.208Z,101250.20
2023-05-13T20:06:18.982Z,101248.80
2023-05-13T20:18:27.230Z,101242.20
2023-05-13T20:32:01.008Z,101229.20
2023-05-13T20:58:17.037Z,101224.00
2023-05-13T21:04:50.238Z,101228.80
2023-05-13T21:10:45.159Z,101233.00
2023-05-13T21:15:52.158Z,101229.60
2023-05-13T21:20:55.882Z,101232.20
2023-05-13T21:26:25.508Z,101234.40
2023-05-13T21:31:29.795Z,101232.60
2023-05-13T21:36:34.103Z,101226.80
2023-05-13T21:41:37.998Z,101225.80
2023-05-13T22:00:56.914Z,101229.00
2023-05-13T22:10:49.804Z,101225.60
2023-05-13T22:15:53.700Z,101223.40
2023-05-13T22:21:03.248Z,101221.20
2023-05-13T22:26:07.038Z,101220.20
2023-05-13T22:31:17.678Z,101220.40
2023-05-13T22:36:21.783Z,101222.40
2023-05-13T22:41:28.602Z,101219.20
2023-05-13T22:57:06.355Z,101222.20
2023-05-13T23:02:10.021Z,101219.60
2023-05-13T23:30:00.391Z,101203.00
2023-05-13T23:35:05.004Z,101199.20
2023-05-13T23:40:59.870Z,101196.80
2023-05-13T23:46:03.857Z,101193.00
2023-05-13T23:51:08.054Z,101188.00
2023-05-13T23:56:12.830Z,101183.60
